Time;durP1;ratioP1;P1;durP2;ratioP2;P2;SDS_P1;SDS_P2;PMS_P1;PMS_P2;Temp;Humidity;BMP_temperature;BMP_pressure;BME280_temperature;BME280_humidity;BME280_pressure;Samples;Min_cycle;Max_cycle;Signal;HPM_P1;HPM_P2
2022/09/30 00:01:53;;;;;;;6.57;5.97;;;10.00;99.90;;;;;;5038857;28;20463;-76
2022/09/30 00:08:30;;;;;;;6.40;5.80;;;10.00;99.90;;;;;;5018889;28;20555;-76
2022/09/30 00:11:53;;;;;;;;;;;;;;;;;;;;;
2022/09/30 00:15:06;;;;;;;5.97;5.47;;;9.90;99.90;;;;;;5013154;28;20598;-76
2022/09/30 00:18:32;;;;;;;7.70;7.10;;;9.90;99.90;;;;;;5013424;28;20487;-76
2022/09/30 00:21:47;;;;;;;6.87;6.30;;;9.80;99.90;;;;;;5014800;28;20455;-76
2022/09/30 00:24:54;;;;;;;6.60;6.00;;;9.80;99.90;;;;;;5019793;28;20940;-77
2022/09/30 00:31:07;;;;;;;6.70;6.10;;;9.70;99.90;;;;;;5032329;28;20460;-77
2022/09/30 00:34:31;;;;;;;6.83;6.23;;;9.70;99.90;;;;;;5031116;28;20458;-74
2022/09/30 00:37:39;;;;;;;7.30;6.70;;;9.60;99.90;;;;;;5041370;28;20482;-74
2022/09/30 00:40:38;;;;;;;8.17;7.47;;;9.60;99.90;;;;;;5022873;28;20455;-77
2022/09/30 00:43:45;;;;;;;9.90;7.70;;;9.60;99.90;;;;;;5019012;28;20450;-76
2022/09/30 00:47:00;;;;;;;;;;;;;;;;;;;;;
2022/09/30 00:50:32;;;;;;;10.20;9.30;;;9.60;99.90;;;;;;5015142;28;20899;-76
2022/09/30 00:53:45;;;;;;;11.20;8.77;;;9.70;99.90;;;;;;5020432;28;20460;-75
2022/09/30 00:56:45;;;;;;;10.60;9.60;;;9.80;99.90;;;;;;5022712;28;21010;-74
2022/09/30 00:59:57;;;;;;;9.30;8.40;;;9.80;99.90;;;;;;5019836;28;20486;-74
2022/09/30 01:03:01;;;;;;;10.37;9.43;;;9.80;99.90;;;;;;5020490;28;20817;-74
2022/09/30 01:09:21;;;;;;;9.83;9.03;;;9.80;99.90;;;;;;5018693;28;20475;-75
2022/09/30 01:12:28;;;;;;;10.00;9.00;;;9.80;99.90;;;;;;5018487;28;21017;-75
2022/09/30 01:15:28;;;;;;;10.40;9.40;;;9.80;99.90;;;;;;5017467;28;20455;-75
2022/09/30 01:18:29;;;;;;;11.47;10.47;;;9.80;99.90;;;;;;5018480;28;20479;-75
2022/09/30 01:22:05;;;;;;;10.90;9.80;;;9.70;99.90;;;;;;5022065;28;20489;-77
2022/09/30 01:25:37;;;;;;;9.47;8.60;;;9.70;99.90;;;;;;5018093;28;20448;-75
2022/09/30 01:29:35;;;;;;;10.70;9.60;;;9.70;99.90;;;;;;5026471;28;20487;-75
2022/09/30 01:36:06;;;;;;;9.00;8.20;;;9.60;99.90;;;;;;5003750;28;20479;-75
2022/09/30 01:39:21;;;;;;;10.83;9.87;;;9.60;99.90;;;;;;5023600;28;20531;-74
2022/09/30 01:42:52;;;;;;;10.43;9.23;;;9.50;99.90;;;;;;5026183;28;20463;-76
2022/09/30 01:46:08;;;;;;;10.63;9.63;;;9.50;99.90;;;;;;5025381;28;20485;-75
2022/09/30 01:49:29;;;;;;;;;;;;;;;;;;;;;
2022/09/30 01:52:37;;;;;;;10.63;9.73;;;9.40;99.90;;;;;;5030025;28;20461;-75
2022/09/30 01:55:42;;;;;;;11.73;10.63;;;9.40;99.90;;;;;;5025897;28;20478;-76
2022/09/30 01:59:12;;;;;;;12.10;10.80;;;9.40;99.90;;;;;;5026069;28;20482;-76
2022/09/30 02:02:16;;;;;;;11.17;10.17;;;9.50;99.90;;;;;;5029208;28;20487;-75
2022/09/30 02:05:20;;;;;;;11.23;10.33;;;9.40;99.90;;;;;;5025937;28;20581;-75
2022/09/30 02:08:23;;;;;;;13.60;12.30;;;9.40;99.90;;;;;;5026479;28;20911;-75
2022/09/30 02:11:42;;;;;;;13.37;12.00;;;9.40;99.90;;;;;;5024544;28;20502;-75
2022/09/30 02:15:05;;;;;;;13.27;11.97;;;9.40;99.90;;;;;;5024807;28;20612;-75
2022/09/30 02:18:18;;;;;;;12.67;11.47;;;9.50;99.90;;;;;;5028220;28;20479;-76
2022/09/30 02:21:27;;;;;;;12.67;11.57;;;9.50;99.90;;;;;;5026857;28;20465;-76
2022/09/30 02:24:35;;;;;;;12.90;11.70;;;9.50;99.90;;;;;;5024766;28;20463;-76
2022/09/30 02:27:42;;;;;;;12.80;11.60;;;9.50;99.90;;;;;;5021977;28;20483;-76
2022/09/30 02:30:50;;;;;;;12.20;11.10;;;9.50;99.90;;;;;;5021187;28;21009;-76
2022/09/30 02:33:55;;;;;;;12.03;10.83;;;9.50;99.90;;;;;;5022829;28;20455;-76
2022/09/30 02:37:21;;;;;;;13.37;12.17;;;9.50;99.90;;;;;;5023633;28;20467;-76
2022/09/30 02:40:46;;;;;;;;;;;;;;;;;;;;;
2022/09/30 02:43:52;;;;;;;13.00;11.70;;;9.50;99.90;;;;;;5018731;28;20459;-76
2022/09/30 02:47:11;;;;;;;13.20;12.00;;;9.50;99.90;;;;;;5020852;28;21173;-76
2022/09/30 02:50:16;;;;;;;14.37;12.97;;;9.50;99.90;;;;;;5021402;28;20466;-76
2022/09/30 02:53:23;;;;;;;13.20;12.00;;;9.50;99.90;;;;;;5020207;28;20464;-77
2022/09/30 02:56:30;;;;;;;13.33;12.03;;;9.50;99.90;;;;;;5024360;28;20828;-76
2022/09/30 03:02:48;;;;;;;13.87;12.60;;;9.60;99.90;;;;;;5020486;28;20478;-76
2022/09/30 03:05:57;;;;;;;12.30;11.00;;;9.60;99.90;;;;;;5021093;28;20852;-76
2022/09/30 03:09:01;;;;;;;13.90;12.70;;;9.60;99.90;;;;;;5023857;28;20565;-76
2022/09/30 03:12:08;;;;;;;12.83;11.63;;;9.60;99.90;;;;;;5017043;28;20451;-76
2022/09/30 03:15:37;;;;;;;12.80;11.50;;;9.60;99.90;;;;;;5023790;28;20451;-76
2022/09/30 03:19:08;;;;;;;13.13;11.93;;;9.60;99.90;;;;;;5002517;28;20480;-76
2022/09/30 03:22:28;;;;;;;;;;;;;;;;;;;;;
2022/09/30 03:25:47;;;;;;;12.37;11.23;;;9.60;99.90;;;;;;5000852;28;20500;-76
2022/09/30 03:28:52;;;;;;;13.10;11.77;;;9.60;99.90;;;;;;5015435;28;20475;-75
2022/09/30 03:32:12;;;;;;;12.73;11.47;;;9.60;99.90;;;;;;5012505;28;20464;-76
2022/09/30 03:35:29;;;;;;;11.43;10.40;;;9.60;99.90;;;;;;5021059;28;20446;-76
2022/09/30 03:38:38;;;;;;;12.80;11.50;;;9.60;99.90;;;;;;5019859;28;20482;-76
2022/09/30 03:41:56;;;;;;;12.90;11.70;;;9.50;99.90;;;;;;5016833;28;20558;-76
2022/09/30 03:45:24;;;;;;;10.87;9.97;;;9.50;99.90;;;;;;5016996;28;20456;-75
2022/09/30 03:48:36;;;;;;;11.07;10.07;;;9.50;99.90;;;;;;5021804;28;20471;-76
2022/09/30 03:51:47;;;;;;;13.20;11.90;;;9.50;99.90;;;;;;5015844;28;20452;-76
2022/09/30 03:55:10;;;;;;;11.93;10.87;;;9.50;99.90;;;;;;5020680;28;20452;-76
2022/09/30 03:58:14;;;;;;;11.60;10.40;;;9.50;99.90;;;;;;5016145;28;20494;-76
2022/09/30 04:01:11;;;;;;;12.23;11.10;;;9.50;99.90;;;;;;5018063;28;20479;-76
2022/09/30 04:08:01;;;;;;;13.00;11.60;;;9.50;99.90;;;;;;5016678;28;20502;-76
2022/09/30 04:11:08;;;;;;;;;;;;;;;;;;;;;
2022/09/30 04:14:08;;;;;;;14.23;12.83;;;9.50;99.90;;;;;;5021541;28;20468;-76
2022/09/30 04:17:16;;;;;;;12.67;11.57;;;9.50;99.90;;;;;;5017150;28;20472;-75
2022/09/30 04:20:34;;;;;;;13.50;12.20;;;9.50;99.90;;;;;;5019899;28;20507;-76
2022/09/30 04:26:58;;;;;;;12.80;11.60;;;9.60;99.90;;;;;;5023971;28;20479;-75
2022/09/30 04:30:01;;;;;;;14.10;12.70;;;9.50;99.90;;;;;;5019862;28;21371;-76
2022/09/30 04:33:16;;;;;;;14.33;12.93;;;9.60;99.90;;;;;;5016356;28;20452;-76
2022/09/30 04:36:27;;;;;;;13.47;12.27;;;9.60;99.90;;;;;;5017485;28;20521;-76
2022/09/30 04:42:55;;;;;;;13.27;11.93;;;9.60;99.90;;;;;;5021118;28;20898;-76
2022/09/30 04:49:16;;;;;;;13.60;12.30;;;9.60;99.90;;;;;;5014287;28;21039;-76
2022/09/30 04:52:28;;;;;;;12.80;11.60;;;9.50;99.90;;;;;;5017264;28;20451;-76
2022/09/30 04:55:32;;;;;;;13.20;11.90;;;9.60;99.90;;;;;;5016892;28;20463;-76
2022/09/30 05:02:11;;;;;;;13.23;11.83;;;9.50;99.90;;;;;;5017333;28;20479;-76
2022/09/30 05:05:38;;;;;;;13.63;12.23;;;9.50;99.90;;;;;;5016421;28;20446;-76
2022/09/30 05:08:43;;;;;;;14.43;12.70;;;9.50;99.90;;;;;;5021375;28;20483;-76
2022/09/30 05:11:47;;;;;;;12.37;11.27;;;9.50;99.90;;;;;;5019268;28;20463;-77
2022/09/30 05:14:52;;;;;;;12.70;11.40;;;9.50;99.90;;;;;;5018323;28;20546;-78
2022/09/30 05:18:12;;;;;;;13.63;12.23;;;9.50;99.90;;;;;;5016396;28;20504;-78
2022/09/30 05:21:31;;;;;;;13.23;11.97;;;9.50;99.90;;;;;;5013922;28;20479;-77
2022/09/30 05:24:54;;;;;;;13.90;12.60;;;9.40;99.90;;;;;;5014812;28;20489;-78
2022/09/30 05:31:11;;;;;;;13.53;12.23;;;9.40;99.90;;;;;;5000213;28;20460;-78
2022/09/30 05:34:17;;;;;;;13.50;12.30;;;9.40;99.90;;;;;;5017658;28;20456;-79
2022/09/30 05:37:28;;;;;;;14.80;13.37;;;9.30;99.90;;;;;;5036130;28;20471;-78
2022/09/30 05:40:37;;;;;;;15.90;14.40;;;9.30;99.90;;;;;;5033202;28;20479;-77
2022/09/30 05:43:32;;;;;;;16.47;14.93;;;9.40;99.90;;;;;;5019407;28;20463;-77
2022/09/30 05:46:57;;;;;;;16.63;14.90;;;9.40;99.90;;;;;;5004738;28;20477;-78
2022/09/30 05:53:27;;;;;;;17.83;16.13;;;9.40;99.90;;;;;;5002919;28;20543;-78
2022/09/30 05:56:25;;;;;;;17.67;16.07;;;9.40;99.90;;;;;;5012835;28;20483;-78
2022/09/30 05:59:32;;;;;;;17.30;15.70;;;9.40;99.90;;;;;;5021504;28;20855;-77
2022/09/30 06:02:22;;;;;;;17.60;15.97;;;9.30;99.90;;;;;;5012407;28;20453;-78
2022/09/30 06:05:12;;;;;;;19.50;17.50;;;9.40;99.90;;;;;;5007261;28;20572;-77
2022/09/30 06:08:07;;;;;;;18.27;16.57;;;9.40;99.90;;;;;;5017204;28;20996;-77
2022/09/30 06:11:02;;;;;;;18.13;16.27;;;9.40;99.90;;;;;;5018502;28;20837;-78
2022/09/30 06:13:56;;;;;;;20.10;17.80;;;9.50;99.90;;;;;;5012229;28;20460;-77
2022/09/30 06:16:53;;;;;;;18.33;16.53;;;9.50;99.90;;;;;;5013092;28;20605;-77
2022/09/30 06:19:52;;;;;;;18.90;17.10;;;9.50;99.90;;;;;;5010322;28;20531;-77
2022/09/30 06:22:44;;;;;;;18.33;16.57;;;;;;;;;;5016141;28;23984;-78
2022/09/30 06:25:49;;;;;;;17.27;15.63;;;;;;;;;;5017183;28;20479;-78
2022/09/30 06:28:39;;;;;;;17.23;15.53;;;;;;;;;;5009773;28;20483;-78
2022/09/30 06:31:41;;;;;;;17.10;15.40;;;9.50;99.90;;;;;;5015234;28;20463;-78
2022/09/30 06:34:29;;;;;;;18.57;16.87;;;9.60;99.90;;;;;;5051521;22;20489;-76
2022/09/30 06:37:20;;;;;;;18.93;17.10;;;9.60;99.90;;;;;;5048599;28;20484;-76
2022/09/30 06:40:10;;;;;;;19.60;17.60;;;9.70;99.90;;;;;;5052159;28;20966;-75
2022/09/30 06:43:03;;;;;;;19.63;17.73;;;9.80;99.90;;;;;;5058030;28;20461;-76
2022/09/30 06:46:00;;;;;;;19.53;17.53;;;9.80;99.90;;;;;;5042142;28;20470;-76
2022/09/30 06:49:04;;;;;;;19.03;17.03;;;9.80;99.90;;;;;;5035203;28;20450;-75
2022/09/30 06:52:10;;;;;;;19.23;17.47;;;9.90;99.90;;;;;;5038500;28;20457;-75
2022/09/30 06:55:09;;;;;;;19.77;17.80;;;9.90;99.90;;;;;;5030171;28;20466;-75
2022/09/30 06:58:03;;;;;;;18.77;16.80;;;10.00;99.90;;;;;;5056480;28;20453;-75
2022/09/30 07:00:59;;;;;;;15.73;14.23;;;10.00;99.90;;;;;;5054261;28;20466;-76
2022/09/30 07:04:06;;;;;;;18.00;16.10;;;10.10;99.90;;;;;;5051717;28;20561;-76
2022/09/30 07:07:02;;;;;;;16.80;15.20;;;10.20;99.90;;;;;;5052278;28;21060;-75
2022/09/30 07:09:55;;;;;;;16.20;14.67;;;10.20;99.90;;;;;;5051679;28;20439;-75
2022/09/30 07:12:52;;;;;;;16.97;15.20;;;10.30;99.90;;;;;;5057601;28;20447;-75
2022/09/30 07:15:53;;;;;;;17.03;14.90;;;10.30;99.90;;;;;;5052064;28;20620;-75
2022/09/30 07:18:47;;;;;;;15.33;13.73;;;10.40;99.90;;;;;;5050071;28;20976;-75
2022/09/30 07:21:55;;;;;;;15.30;13.80;;;10.40;99.90;;;;;;5053655;28;20504;-77
2022/09/30 07:24:54;;;;;;;15.20;13.67;;;10.50;99.90;;;;;;5053373;28;20462;-78
2022/09/30 07:27:48;;;;;;;14.73;13.20;;;10.60;99.90;;;;;;5050937;28;20477;-76
2022/09/30 07:30:46;;;;;;;14.63;13.10;;;10.80;99.90;;;;;;5052096;28;20472;-75
2022/09/30 07:33:39;;;;;;;14.17;12.80;;;10.90;99.90;;;;;;5049581;28;20497;-76
2022/09/30 07:36:35;;;;;;;14.10;12.77;;;10.90;99.90;;;;;;5049331;28;20482;-76
2022/09/30 07:39:25;;;;;;;13.23;11.87;;;10.90;99.90;;;;;;5052611;28;20462;-77
2022/09/30 07:42:18;;;;;;;14.00;12.60;;;10.90;99.90;;;;;;5060972;28;20482;-76
2022/09/30 07:45:18;;;;;;;13.30;12.00;;;10.90;99.90;;;;;;5054508;28;20564;-74
2022/09/30 07:48:38;;;;;;;12.57;11.47;;;11.00;99.90;;;;;;5060807;28;20450;-74
2022/09/30 07:51:29;;;;;;;12.53;11.33;;;11.00;99.90;;;;;;5062463;28;20825;-74
2022/09/30 07:54:25;;;;;;;12.23;11.13;;;11.00;99.90;;;;;;5056036;28;20497;-74
2022/09/30 07:57:23;;;;;;;10.97;9.80;;;11.10;99.90;;;;;;5051722;28;20481;-74
2022/09/30 08:00:18;;;;;;;11.50;10.40;;;11.10;99.90;;;;;;5057494;28;20989;-74
2022/09/30 08:03:43;;;;;;;10.50;9.50;;;11.20;99.90;;;;;;5054903;28;20470;-76
2022/09/30 08:06:42;;;;;;;9.60;8.70;;;11.20;99.90;;;;;;5059105;28;20831;-76
2022/09/30 08:09:35;;;;;;;10.30;9.40;;;11.30;99.90;;;;;;5052926;28;20455;-74
2022/09/30 08:12:25;;;;;;;10.80;9.70;;;11.40;99.90;;;;;;5054889;28;20560;-74
2022/09/30 08:15:23;;;;;;;;;;;;;;;;;;;;;
2022/09/30 08:18:17;;;;;;;10.67;9.57;;;11.40;99.90;;;;;;5052562;28;20843;-74
2022/09/30 08:21:09;;;;;;;10.27;9.27;;;11.40;99.90;;;;;;5051005;28;20849;-74
2022/09/30 08:23:58;;;;;;;8.70;7.90;;;11.50;99.90;;;;;;5057292;28;20477;-74
2022/09/30 08:26:50;;;;;;;10.33;9.33;;;11.60;99.90;;;;;;5054081;28;20848;-76
2022/09/30 08:29:41;;;;;;;8.80;8.00;;;11.60;99.90;;;;;;5054164;28;20966;-74
2022/09/30 08:32:53;;;;;;;9.23;8.43;;;11.70;99.90;;;;;;5049484;28;20589;-76
2022/09/30 08:35:46;;;;;;;9.10;8.30;;;11.70;99.90;;;;;;5059242;28;20466;-74
2022/09/30 08:42:23;;;;;;;7.40;6.70;;;11.90;99.90;;;;;;5060403;28;20642;-74
2022/09/30 08:45:35;;;;;;;6.73;6.17;;;11.90;99.90;;;;;;5052870;28;20500;-75
2022/09/30 08:48:40;;;;;;;7.47;6.40;;;11.90;99.90;;;;;;5051949;28;20969;-74
2022/09/30 08:51:39;;;;;;;7.17;6.10;;;12.00;99.90;;;;;;5054632;28;20454;-74
2022/09/30 08:54:35;;;;;;;6.73;6.13;;;12.10;99.90;;;;;;5055615;28;20481;-74
2022/09/30 08:57:36;;;;;;;7.20;6.50;;;12.20;99.90;;;;;;5057687;28;22065;-74
2022/09/30 09:00:24;;;;;;;6.10;5.57;;;12.20;99.90;;;;;;5055771;28;20458;-73
2022/09/30 09:03:14;;;;;;;5.50;5.10;;;12.30;99.90;;;;;;5059024;28;20485;-74
2022/09/30 09:06:20;;;;;;;5.57;5.10;;;12.30;99.90;;;;;;5051368;28;20492;-74
2022/09/30 09:09:31;;;;;;;7.00;5.90;;;12.40;99.90;;;;;;5059930;28;20445;-74
2022/09/30 09:12:34;;;;;;;6.10;5.60;;;12.50;99.90;;;;;;5052949;28;20508;-74
2022/09/30 09:15:52;;;;;;;5.30;4.90;;;12.50;99.90;;;;;;5054471;28;20458;-74
2022/09/30 09:18:57;;;;;;;6.50;5.90;;;12.60;99.90;;;;;;5058371;28;20992;-74
2022/09/30 09:21:56;;;;;;;5.87;5.07;;;12.80;99.90;;;;;;5058454;28;20480;-74
2022/09/30 09:24:52;;;;;;;6.70;6.20;;;12.90;99.90;;;;;;5055744;28;20477;-75
2022/09/30 09:27:54;;;;;;;7.33;5.60;;;13.00;99.90;;;;;;5056802;28;20480;-76
2022/09/30 09:30:51;;;;;;;5.43;4.93;;;13.00;99.90;;;;;;5053528;28;20871;-74
2022/09/30 09:33:46;;;;;;;5.37;4.87;;;13.10;99.90;;;;;;5056851;28;20453;-74
2022/09/30 09:36:48;;;;;;;6.83;4.90;;;13.20;99.90;;;;;;5056139;28;20461;-74
2022/09/30 09:40:06;;;;;;;6.10;5.60;;;13.30;99.90;;;;;;5054541;28;20953;-74
2022/09/30 09:43:08;;;;;;;4.97;4.17;;;13.40;99.90;;;;;;5055340;28;20482;-75
2022/09/30 09:46:08;;;;;;;5.23;4.30;;;13.40;99.90;;;;;;5051003;28;20911;-74
2022/09/30 09:49:38;;;;;;;5.47;4.43;;;13.50;99.90;;;;;;5055824;28;20457;-75
2022/09/30 09:52:57;;;;;;;4.50;4.20;;;13.60;99.90;;;;;;5052676;28;20462;-75
2022/09/30 09:55:56;;;;;;;3.97;3.67;;;13.70;99.90;;;;;;5053389;28;20474;-74
2022/09/30 09:59:09;;;;;;;4.07;3.77;;;13.80;99.90;;;;;;5055048;28;20438;-74
2022/09/30 10:02:22;;;;;;;4.80;4.30;;;13.80;99.90;;;;;;5054324;28;20523;-75
2022/09/30 10:05:41;;;;;;;;;;;;;;;;;;;;;
2022/09/30 10:08:38;;;;;;;3.87;3.57;;;13.90;99.90;;;;;;5060236;28;20445;-74
2022/09/30 10:11:28;;;;;;;10.23;4.50;;;13.90;99.90;;;;;;5051652;28;20842;-74
2022/09/30 10:14:21;;;;;;;4.20;3.90;;;14.00;99.90;;;;;;5062268;28;21144;-74
2022/09/30 10:17:20;;;;;;;4.23;3.83;;;14.00;99.90;;;;;;5058195;28;20474;-74
2022/09/30 10:20:23;;;;;;;4.90;4.47;;;14.10;99.90;;;;;;5056671;28;20469;-74
2022/09/30 10:23:22;;;;;;;4.13;3.83;;;14.10;99.90;;;;;;5058410;28;20492;-74
2022/09/30 10:26:21;;;;;;;4.90;3.83;;;14.10;99.90;;;;;;5052108;28;20571;-74
2022/09/30 10:29:28;;;;;;;11.93;10.63;;;14.20;99.90;;;;;;5054760;28;20458;-74
2022/09/30 10:32:21;;;;;;;11.80;10.50;;;14.20;99.90;;;;;;5056578;28;20795;-74
2022/09/30 10:35:20;;;;;;;10.13;8.70;;;14.20;99.90;;;;;;5056795;28;20501;-74
2022/09/30 10:38:13;;;;;;;12.57;10.77;;;14.30;99.90;;;;;;5061724;28;20929;-75
2022/09/30 10:41:06;;;;;;;18.37;15.80;;;14.30;99.90;;;;;;5058275;28;20450;-76
2022/09/30 10:44:05;;;;;;;8.50;7.63;;;14.50;99.90;;;;;;5057468;28;21202;-75
2022/09/30 10:47:05;;;;;;;12.77;11.57;;;14.60;99.90;;;;;;5053944;28;21033;-74
2022/09/30 10:50:12;;;;;;;8.40;7.00;;;14.70;99.90;;;;;;5061012;28;20453;-75
2022/09/30 10:53:08;;;;;;;6.00;5.50;;;14.80;99.90;;;;;;5048555;28;20454;-74
2022/09/30 10:56:01;;;;;;;25.23;22.53;;;14.90;99.90;;;;;;5057367;28;21187;-75
2022/09/30 10:58:51;;;;;;;12.80;11.50;;;15.10;99.90;;;;;;5065056;28;20450;-75
2022/09/30 11:01:44;;;;;;;17.40;14.93;;;15.10;99.90;;;;;;5055462;28;20453;-75
2022/09/30 11:04:51;;;;;;;5.30;4.90;;;15.30;99.90;;;;;;5052202;28;20498;-75
2022/09/30 11:07:49;;;;;;;4.27;3.90;;;15.30;99.90;;;;;;5056454;28;20473;-75
2022/09/30 11:10:49;;;;;;;4.27;3.83;;;15.30;99.90;;;;;;5057161;28;20460;-74
2022/09/30 11:13:43;;;;;;;4.30;3.90;;;15.30;99.90;;;;;;5057355;28;20474;-75
2022/09/30 11:16:41;;;;;;;30.90;25.07;;;15.30;99.90;;;;;;5054109;28;20628;-74
2022/09/30 11:19:37;;;;;;;5.60;5.10;;;15.30;99.90;;;;;;5050501;28;20485;-75
2022/09/30 11:22:43;;;;;;;8.70;7.40;;;15.30;99.90;;;;;;5054694;28;20474;-75
2022/09/30 11:25:42;;;;;;;4.43;3.97;;;15.30;99.90;;;;;;5056912;28;20462;-74
2022/09/30 11:28:49;;;;;;;15.70;13.00;;;15.20;99.90;;;;;;5054871;28;20448;-74
2022/09/30 11:31:46;;;;;;;6.63;5.37;;;15.20;99.90;;;;;;5052581;28;20924;-74
2022/09/30 11:34:51;;;;;;;6.13;4.77;;;15.10;99.90;;;;;;5052343;28;20492;-75
2022/09/30 11:38:01;;;;;;;2.90;2.70;;;15.00;99.90;;;;;;5027933;28;21053;-70
2022/09/30 11:41:10;;;;;;;5.13;4.70;;;15.10;99.90;;;;;;5047787;28;20455;-71
2022/09/30 11:44:10;;;;;;;8.03;5.83;;;15.30;99.90;;;;;;5049268;28;20486;-76
2022/09/30 11:47:33;;;;;;;3.83;3.53;;;15.60;99.90;;;;;;5049363;28;21005;-75
2022/09/30 11:50:36;;;;;;;3.73;2.90;;;15.90;99.90;;;;;;5050100;28;20450;-74
2022/09/30 11:53:37;;;;;;;4.77;4.33;;;16.30;99.90;;;;;;5052413;28;20861;-75
2022/09/30 11:56:41;;;;;;;4.80;2.77;;;16.60;99.90;;;;;;5055454;28;20477;-74
2022/09/30 11:59:46;;;;;;;4.37;3.77;;;16.80;99.90;;;;;;5054143;28;20953;-74
2022/09/30 12:02:39;;;;;;;2.30;2.10;;;16.90;99.90;;;;;;5035371;28;20456;-73
2022/09/30 12:05:32;;;;;;;3.20;2.43;;;16.80;99.90;;;;;;5054585;28;20549;-74
2022/09/30 12:08:37;;;;;;;2.47;2.27;;;16.60;99.90;;;;;;5057333;28;20445;-74
2022/09/30 12:11:37;;;;;;;2.97;2.67;;;16.70;99.90;;;;;;5050937;28;20453;-74
2022/09/30 12:14:36;;;;;;;3.50;3.20;;;16.90;99.90;;;;;;5053553;28;20471;-75
2022/09/30 12:17:32;;;;;;;4.40;3.90;;;17.30;99.90;;;;;;5053431;28;20497;-74
2022/09/30 12:20:30;;;;;;;2.40;2.20;;;18.20;99.90;;;;;;5053083;28;20446;-73
2022/09/30 12:23:26;;;;;;;3.00;2.30;;;19.40;99.90;;;;;;5054777;28;20832;-74
2022/09/30 12:26:20;;;;;;;2.47;2.27;;;20.50;99.90;;;;;;5053407;28;20477;-74
2022/09/30 12:32:52;;;;;;;5.23;4.37;;;21.50;99.90;;;;;;5047957;28;20477;-75
2022/09/30 12:36:04;;;;;;;3.53;3.23;;;22.90;99.90;;;;;;5050711;22;20636;-68
2022/09/30 12:39:28;;;;;;;4.13;3.73;;;24.20;99.90;;;;;;5033883;28;20516;-69
2022/09/30 12:42:53;;;;;;;16.13;4.07;;;25.30;99.90;;;;;;5034725;28;20451;-69
2022/09/30 12:46:10;;;;;;;3.43;3.23;;;25.50;99.90;;;;;;5022682;28;20632;-70
2022/09/30 12:52:16;;;;;;;4.23;3.93;;;25.50;99.70;;;;;;5022613;28;20456;-69
2022/09/30 12:55:18;;;;;;;3.43;3.23;;;26.10;99.90;;;;;;5017674;28;20518;-69
2022/09/30 12:58:20;;;;;;;4.33;3.90;;;26.60;99.00;;;;;;5017895;28;20979;-72
2022/09/30 13:01:20;;;;;;;3.80;3.50;;;26.70;97.00;;;;;;5019893;28;21053;-70
2022/09/30 13:04:32;;;;;;;3.10;2.90;;;27.00;94.40;;;;;;5019054;28;20515;-69
2022/09/30 13:07:24;;;;;;;5.43;3.37;;;27.10;93.90;;;;;;5021984;28;20509;-69
2022/09/30 13:10:29;;;;;;;2.60;2.40;;;27.40;92.10;;;;;;5021705;28;21248;-70
2022/09/30 13:13:30;;;;;;;3.53;3.07;;;26.90;92.40;;;;;;5019313;28;20456;-70
2022/09/30 13:17:09;;;;;;;3.50;3.30;;;25.60;93.80;;;;;;5015701;28;20487;-71
2022/09/30 13:20:23;;;;;;;4.47;4.00;;;25.10;97.40;;;;;;4993683;28;20476;-70
2022/09/30 13:23:40;;;;;;;5.23;4.13;;;25.50;96.80;;;;;;5001328;28;20571;-71
2022/09/30 13:26:45;;;;;;;3.53;3.33;;;25.40;93.40;;;;;;4990706;28;20477;-71
2022/09/30 13:29:49;;;;;;;3.10;2.90;;;25.10;97.20;;;;;;5000662;28;20452;-71
2022/09/30 13:32:41;;;;;;;4.17;3.90;;;24.50;97.70;;;;;;4998676;28;20467;-71
2022/09/30 13:35:37;;;;;;;3.60;3.40;;;23.90;99.90;;;;;;4997703;28;20575;-71
2022/09/30 13:38:39;;;;;;;3.40;3.10;;;23.40;99.90;;;;;;5023787;28;20482;-71
2022/09/30 13:41:32;;;;;;;3.13;2.93;;;23.40;99.90;;;;;;5005482;28;20459;-72
2022/09/30 13:44:30;;;;;;;3.07;2.87;;;23.50;99.90;;;;;;4999310;28;20484;-72
2022/09/30 13:47:26;;;;;;;3.83;3.53;;;23.60;99.90;;;;;;5014306;28;20918;-70
2022/09/30 13:50:30;;;;;;;4.10;3.90;;;23.60;99.90;;;;;;5018254;28;20462;-70
2022/09/30 13:53:30;;;;;;;4.37;4.00;;;23.40;99.90;;;;;;5026747;28;20458;-69
2022/09/30 13:56:35;;;;;;;4.60;4.23;;;23.10;99.90;;;;;;5050318;28;20481;-70
2022/09/30 13:59:47;;;;;;;4.30;4.00;;;22.80;99.90;;;;;;5047280;28;20450;-70
2022/09/30 14:02:58;;;;;;;5.60;5.20;;;22.30;99.90;;;;;;5042067;28;20448;-70
2022/09/30 14:06:14;;;;;;;4.57;4.17;;;21.80;99.90;;;;;;5042179;28;20986;-70
2022/09/30 14:09:20;;;;;;;4.80;4.40;;;21.10;99.90;;;;;;5038675;28;20459;-70
2022/09/30 14:12:25;;;;;;;4.63;4.23;;;20.60;99.90;;;;;;5039415;28;20463;-71
2022/09/30 14:15:48;;;;;;;4.53;4.10;;;20.30;99.90;;;;;;5038364;28;20481;-71
2022/09/30 14:19:01;;;;;;;5.97;5.47;;;20.00;99.90;;;;;;5014865;28;20451;-70
2022/09/30 14:21:54;;;;;;;6.13;5.63;;;19.80;99.90;;;;;;5021513;28;20477;-71
2022/09/30 14:24:51;;;;;;;5.77;5.37;;;19.50;99.90;;;;;;5025134;28;20562;-71
2022/09/30 14:27:49;;;;;;;6.30;5.80;;;19.30;99.90;;;;;;5077739;28;20482;-71
2022/09/30 14:31:06;;;;;;;6.27;5.87;;;19.20;99.90;;;;;;5082052;28;20456;-71
2022/09/30 14:33:57;;;;;;;5.83;5.37;;;19.00;99.90;;;;;;5077827;28;20460;-71
2022/09/30 14:36:50;;;;;;;5.97;5.47;;;18.90;99.90;;;;;;5082338;28;20477;-71
2022/09/30 14:39:39;;;;;;;7.10;6.37;;;18.70;99.90;;;;;;5086214;28;20452;-69
2022/09/30 14:42:37;;;;;;;5.93;5.43;;;18.60;99.90;;;;;;5081141;28;20453;-70
2022/09/30 14:45:35;;;;;;;6.87;6.23;;;18.60;99.90;;;;;;5077728;28;20557;-70
2022/09/30 14:48:36;;;;;;;7.50;6.67;;;18.50;99.90;;;;;;5077810;28;20484;-69
2022/09/30 14:51:42;;;;;;;7.37;6.73;;;18.50;99.90;;;;;;5084585;28;20449;-69
2022/09/30 14:54:35;;;;;;;10.77;9.67;;;18.40;99.90;;;;;;5077361;28;20471;-69
2022/09/30 14:57:26;;;;;;;10.77;9.30;;;18.30;99.90;;;;;;5079630;28;22231;-70
2022/09/30 15:00:32;;;;;;;8.97;8.07;;;18.20;99.90;;;;;;5074857;28;20456;-70
2022/09/30 15:03:27;;;;;;;13.13;11.80;;;18.00;99.90;;;;;;5087610;28;20451;-70
2022/09/30 15:06:20;;;;;;;9.23;8.37;;;17.80;99.90;;;;;;5084275;28;20486;-70
2022/09/30 15:09:26;;;;;;;8.10;7.40;;;17.80;99.90;;;;;;5084695;28;20940;-70
2022/09/30 15:12:24;;;;;;;8.77;7.90;;;17.80;99.90;;;;;;5080746;28;20479;-71
2022/09/30 15:15:34;;;;;;;6.30;5.80;;;17.70;99.90;;;;;;5083001;28;20572;-71
2022/09/30 15:18:37;;;;;;;12.53;11.30;;;17.60;99.90;;;;;;5084685;28;20456;-71
2022/09/30 15:21:34;;;;;;;7.57;6.97;;;17.40;99.90;;;;;;5088191;28;20460;-71
2022/09/30 15:24:26;;;;;;;10.83;9.83;;;17.40;99.90;;;;;;5081730;28;20480;-71
2022/09/30 15:27:22;;;;;;;9.93;8.90;;;17.30;99.90;;;;;;5085965;28;20473;-70
2022/09/30 15:30:28;;;;;;;7.63;7.00;;;17.20;99.90;;;;;;5082366;28;20449;-71
2022/09/30 15:33:26;;;;;;;6.37;5.87;;;17.10;99.90;;;;;;5083701;28;20446;-70
2022/09/30 15:36:28;;;;;;;8.60;7.90;;;17.10;99.90;;;;;;5090094;28;20463;-71
2022/09/30 15:40:44;;;;;;;11.60;10.60;;;17.00;99.90;;;;;;5077720;28;20817;-71
2022/09/30 15:42:42;;;;;;;10.33;8.87;;;17.00;99.90;;;;;;5084292;28;20975;-71
2022/09/30 15:45:35;;;;;;;9.77;8.90;;;16.90;99.90;;;;;;5081679;28;20496;-70
2022/09/30 15:48:36;;;;;;;8.50;7.80;;;16.80;99.90;;;;;;5083635;28;20537;-71
2022/09/30 15:51:38;;;;;;;8.90;8.10;;;16.80;99.90;;;;;;5080606;28;20783;-70
2022/09/30 15:54:36;;;;;;;8.57;7.90;;;16.70;99.90;;;;;;5078635;28;21056;-71
2022/09/30 15:57:52;;;;;;;8.73;7.93;;;16.60;99.90;;;;;;5081453;28;20842;-70
2022/09/30 16:00:44;;;;;;;13.90;12.67;;;16.40;99.90;;;;;;5052571;28;20465;-71
2022/09/30 16:03:39;;;;;;;16.27;14.60;;;16.30;99.90;;;;;;5078991;28;20469;-71
2022/09/30 16:06:33;;;;;;;15.60;12.77;;;16.20;99.90;;;;;;5088889;28;20477;-71
2022/09/30 16:09:36;;;;;;;13.17;11.87;;;16.10;99.90;;;;;;5081041;28;20854;-70
2022/09/30 16:12:32;;;;;;;17.10;15.40;;;16.10;99.90;;;;;;5079239;28;20445;-70
2022/09/30 16:15:26;;;;;;;19.40;17.30;;;16.00;99.90;;;;;;5073847;28;20530;-70
2022/09/30 16:18:24;;;;;;;31.97;25.30;;;15.90;99.90;;;;;;5082417;28;20968;-72
2022/09/30 16:21:42;;;;;;;17.47;15.73;;;15.90;99.90;;;;;;5082530;28;20552;-71
2022/09/30 16:24:47;;;;;;;11.83;10.83;;;15.70;99.90;;;;;;5078299;28;20449;-72
2022/09/30 16:27:39;;;;;;;9.47;8.63;;;15.70;99.90;;;;;;5082944;28;21007;-71
2022/09/30 16:30:33;;;;;;;8.93;8.13;;;15.70;99.90;;;;;;5082776;28;20464;-71
2022/09/30 16:33:23;;;;;;;9.87;8.97;;;15.60;99.90;;;;;;5084180;28;20448;-71
2022/09/30 16:36:23;;;;;;;11.63;10.73;;;15.50;99.90;;;;;;5085828;28;20567;-71
2022/09/30 16:39:16;;;;;;;12.30;11.30;;;15.50;99.90;;;;;;5086050;28;20980;-71
2022/09/30 16:42:06;;;;;;;16.27;14.97;;;15.40;99.90;;;;;;5077910;28;20453;-70
2022/09/30 16:45:03;;;;;;;17.23;15.70;;;15.40;99.90;;;;;;5076991;28;20484;-69
2022/09/30 16:47:56;;;;;;;14.30;13.00;;;15.30;99.90;;;;;;5083687;28;20468;-69
2022/09/30 16:50:50;;;;;;;40.27;31.20;;;15.20;99.90;;;;;;5077188;28;20444;-70
2022/09/30 16:53:46;;;;;;;42.00;33.27;;;15.10;99.90;;;;;;5080994;28;20452;-70